sensor_id;sensor_type;location;lat;lon;timestamp;pressure;altitude;pressure_sealevel;temperature;humidity
71795;BME280;59641;45.188;5.712;2023-06-24T00:00:17;99716.25;;;25.51;42.51
71795;BME280;59641;45.188;5.712;2023-06-24T00:02:44;99716.59;;;25.50;42.75
71795;BME280;59641;45.188;5.712;2023-06-24T00:05:10;99720.44;;;25.49;42.92
71795;BME280;59641;45.188;5.712;2023-06-24T00:07:36;99715.88;;;25.44;43.01
71795;BME280;59641;45.188;5.712;2023-06-24T00:10:10;99712.66;;;25.42;42.74
71795;BME280;59641;45.188;5.712;2023-06-24T00:12:35;99713.75;;;25.41;42.85
71795;BME280;59641;45.188;5.712;2023-06-24T00:15:00;99710.84;;;25.38;42.77
71795;BME280;59641;45.188;5.712;2023-06-24T00:17:26;99708.41;;;25.36;42.75
71795;BME280;59641;45.188;5.712;2023-06-24T00:19:53;99709.81;;;25.34;42.62
71795;BME280;59641;45.188;5.712;2023-06-24T00:22:20;99709.44;;;25.26;42.78
71795;BME280;59641;45.188;5.712;2023-06-24T00:24:45;99707.00;;;25.25;43.01
71795;BME280;59641;45.188;5.712;2023-06-24T00:27:10;99702.94;;;25.22;43.09
71795;BME280;59641;45.188;5.712;2023-06-24T00:29:36;99707.09;;;25.20;43.03
71795;BME280;59641;45.188;5.712;2023-06-24T00:32:01;99699.47;;;25.17;42.98
71795;BME280;59641;45.188;5.712;2023-06-24T00:34:26;99692.16;;;25.12;42.76
71795;BME280;59641;45.188;5.712;2023-06-24T00:36:52;99700.38;;;25.12;42.76
71795;BME280;59641;45.188;5.712;2023-06-24T00:39:17;99699.88;;;25.10;42.90
71795;BME280;59641;45.188;5.712;2023-06-24T00:41:43;99696.97;;;25.06;42.85
71795;BME280;59641;45.188;5.712;2023-06-24T00:44:08;99696.44;;;25.04;42.83
71795;BME280;59641;45.188;5.712;2023-06-24T00:46:34;99698.69;;;25.02;42.93
71795;BME280;59641;45.188;5.712;2023-06-24T00:49:00;99700.91;;;25.00;42.78
71795;BME280;59641;45.188;5.712;2023-06-24T00:51:28;99692.78;;;24.95;42.85
71795;BME280;59641;45.188;5.712;2023-06-24T00:53:59;99693.09;;;24.94;42.95
71795;BME280;59641;45.188;5.712;2023-06-24T00:56:31;99683.25;;;24.93;43.13
71795;BME280;59641;45.188;5.712;2023-06-24T00:58:58;99694.53;;;24.91;43.11
71795;BME280;59641;45.188;5.712;2023-06-24T01:01:32;99696.28;;;24.87;43.57
71795;BME280;59641;45.188;5.712;2023-06-24T01:03:59;99694.13;;;24.84;43.20
71795;BME280;59641;45.188;5.712;2023-06-24T01:06:25;99691.19;;;24.80;43.34
71795;BME280;59641;45.188;5.712;2023-06-24T01:08:57;99696.16;;;24.78;43.38
71795;BME280;59641;45.188;5.712;2023-06-24T01:11:28;99690.97;;;24.77;43.42
71795;BME280;59641;45.188;5.712;2023-06-24T01:13:54;99694.34;;;24.74;43.42
71795;BME280;59641;45.188;5.712;2023-06-24T01:16:38;99693.53;;;24.73;43.12
71795;BME280;59641;45.188;5.712;2023-06-24T01:24:54;99700.34;;;24.62;43.30
71795;BME280;59641;45.188;5.712;2023-06-24T01:30:41;99704.81;;;24.58;43.31
71795;BME280;59641;45.188;5.712;2023-06-24T01:33:20;99699.13;;;24.54;43.65
71795;BME280;59641;45.188;5.712;2023-06-24T01:35:48;99705.72;;;24.53;43.44
71795;BME280;59641;45.188;5.712;2023-06-24T01:38:29;99701.88;;;24.54;43.69
71795;BME280;59641;45.188;5.712;2023-06-24T01:40:58;99698.91;;;24.51;43.25
71795;BME280;59641;45.188;5.712;2023-06-24T01:43:24;99703.06;;;24.48;43.70
71795;BME280;59641;45.188;5.712;2023-06-24T01:45:52;99700.84;;;24.50;43.69
71795;BME280;59641;45.188;5.712;2023-06-24T01:48:34;99697.00;;;24.51;43.51
71795;BME280;59641;45.188;5.712;2023-06-24T01:51:02;99689.69;;;24.47;43.31
71795;BME280;59641;45.188;5.712;2023-06-24T01:53:31;99694.34;;;24.46;43.26
71795;BME280;59641;45.188;5.712;2023-06-24T01:55:59;99691.06;;;24.44;43.38
71795;BME280;59641;45.188;5.712;2023-06-24T01:58:25;99688.91;;;24.41;43.62
71795;BME280;59641;45.188;5.712;2023-06-24T02:00:52;99681.31;;;24.38;43.59
71795;BME280;59641;45.188;5.712;2023-06-24T02:03:19;99684.97;;;24.33;43.44
71795;BME280;59641;45.188;5.712;2023-06-24T02:05:46;99689.41;;;24.29;43.46
71795;BME280;59641;45.188;5.712;2023-06-24T02:08:13;99692.78;;;24.26;43.86
71795;BME280;59641;45.188;5.712;2023-06-24T02:10:39;99693.09;;;24.24;44.19
71795;BME280;59641;45.188;5.712;2023-06-24T02:13:08;99694.19;;;24.23;44.19
71795;BME280;59641;45.188;5.712;2023-06-24T02:15:36;99687.91;;;24.23;44.21
71795;BME280;59641;45.188;5.712;2023-06-24T02:18:04;99685.44;;;24.21;44.34
71795;BME280;59641;45.188;5.712;2023-06-24T02:20:31;99684.94;;;24.19;44.31
71795;BME280;59641;45.188;5.712;2023-06-24T02:22:57;99679.44;;;24.19;44.24
71795;BME280;59641;45.188;5.712;2023-06-24T02:25:25;99678.66;;;24.19;44.41
71795;BME280;59641;45.188;5.712;2023-06-24T02:27:52;99675.91;;;24.19;44.47
71795;BME280;59641;45.188;5.712;2023-06-24T02:30:19;99678.66;;;24.19;44.91
71795;BME280;59641;45.188;5.712;2023-06-24T02:32:45;99678.66;;;24.19;44.92
71795;BME280;59641;45.188;5.712;2023-06-24T02:35:11;99680.59;;;24.18;45.07
71795;BME280;59641;45.188;5.712;2023-06-24T02:37:36;99680.88;;;24.17;45.25
71795;BME280;59641;45.188;5.712;2023-06-24T02:40:02;99679.56;;;24.14;45.40
71795;BME280;59641;45.188;5.712;2023-06-24T02:42:29;99677.13;;;24.13;45.16
71795;BME280;59641;45.188;5.712;2023-06-24T02:44:54;99677.41;;;24.11;45.27
71795;BME280;59641;45.188;5.712;2023-06-24T02:47:20;99676.91;;;24.09;45.37
71795;BME280;59641;45.188;5.712;2023-06-24T02:49:48;99673.34;;;24.09;45.92
71795;BME280;59641;45.188;5.712;2023-06-24T02:52:15;99672.84;;;24.07;45.97
71795;BME280;59641;45.188;5.712;2023-06-24T02:54:41;99675.59;;;24.07;45.96
71795;BME280;59641;45.188;5.712;2023-06-24T02:57:08;99684.94;;;24.06;46.03
71795;BME280;59641;45.188;5.712;2023-06-24T02:59:33;99678.63;;;24.05;45.76
71795;BME280;59641;45.188;5.712;2023-06-24T03:01:59;99676.19;;;24.03;45.98
71795;BME280;59641;45.188;5.712;2023-06-24T03:04:26;99682.78;;;24.02;45.99
71795;BME280;59641;45.188;5.712;2023-06-24T03:06:52;99684.19;;;24.00;46.14
71795;BME280;59641;45.188;5.712;2023-06-24T03:09:18;99686.94;;;24.00;45.81
71795;BME280;59641;45.188;5.712;2023-06-24T03:11:44;99685.41;;;23.94;46.16
71795;BME280;59641;45.188;5.712;2023-06-24T03:14:10;99681.63;;;23.90;46.22
71795;BME280;59641;45.188;5.712;2023-06-24T03:16:36;99675.13;;;23.86;46.25
71795;BME280;59641;45.188;5.712;2023-06-24T03:19:03;99679.28;;;23.83;46.32
71795;BME280;59641;45.188;5.712;2023-06-24T03:21:29;99676.88;;;23.81;46.30
71795;BME280;59641;45.188;5.712;2023-06-24T03:23:54;99679.09;;;23.79;46.43
71795;BME280;59641;45.188;5.712;2023-06-24T03:26:20;99681.00;;;23.79;46.02
71795;BME280;59641;45.188;5.712;2023-06-24T03:28:45;99684.66;;;23.74;46.56
71795;BME280;59641;45.188;5.712;2023-06-24T03:31:11;99689.06;;;23.70;46.87
71795;BME280;59641;45.188;5.712;2023-06-24T03:33:36;99688.53;;;23.68;46.69
71795;BME280;59641;45.188;5.712;2023-06-24T03:36:02;99688.34;;;23.65;46.88
71795;BME280;59641;45.188;5.712;2023-06-24T03:38:27;99688.63;;;23.63;46.81
71795;BME280;59641;45.188;5.712;2023-06-24T03:40:53;99686.19;;;23.61;47.08
71795;BME280;59641;45.188;5.712;2023-06-24T03:43:18;99691.97;;;23.60;46.84
71795;BME280;59641;45.188;5.712;2023-06-24T03:45:44;99687.91;;;23.57;46.98
71795;BME280;59641;45.188;5.712;2023-06-24T03:48:09;99692.88;;;23.55;46.89
71795;BME280;59641;45.188;5.712;2023-06-24T03:50:35;99699.44;;;23.54;46.94
71795;BME280;59641;45.188;5.712;2023-06-24T03:53:00;99691.81;;;23.51;46.71
71795;BME280;59641;45.188;5.712;2023-06-24T03:55:25;99698.63;;;23.54;47.08
71795;BME280;59641;45.188;5.712;2023-06-24T03:57:51;99695.09;;;23.53;47.04
71795;BME280;59641;45.188;5.712;2023-06-24T04:00:16;99692.34;;;23.53;46.99
71795;BME280;59641;45.188;5.712;2023-06-24T04:02:43;99704.13;;;23.54;46.96
71795;BME280;59641;45.188;5.712;2023-06-24T04:05:09;99707.97;;;23.53;46.88
71795;BME280;59641;45.188;5.712;2023-06-24T04:07:34;99704.44;;;23.52;47.00
71795;BME280;59641;45.188;5.712;2023-06-24T04:10:02;99707.44;;;23.51;46.77
71795;BME280;59641;45.188;5.712;2023-06-24T04:12:27;99697.09;;;23.48;46.93
71795;BME280;59641;45.188;5.712;2023-06-24T04:14:53;99707.22;;;23.47;47.06
71795;BME280;59641;45.188;5.712;2023-06-24T04:17:18;99705.09;;;23.44;47.28
71795;BME280;59641;45.188;5.712;2023-06-24T04:19:44;99699.09;;;23.42;47.20
71795;BME280;59641;45.188;5.712;2023-06-24T04:22:09;99703.22;;;23.39;47.65
71795;BME280;59641;45.188;5.712;2023-06-24T04:24:35;99698.88;;;23.38;47.02
71795;BME280;59641;45.188;5.712;2023-06-24T04:27:00;99704.44;;;23.33;47.07
71795;BME280;59641;45.188;5.712;2023-06-24T04:29:25;99706.19;;;23.24;47.25
71795;BME280;59641;45.188;5.712;2023-06-24T04:31:50;99715.00;;;23.21;47.59
71795;BME280;59641;45.188;5.712;2023-06-24T04:34:16;99713.66;;;23.18;47.56
71795;BME280;59641;45.188;5.712;2023-06-24T04:36:41;99712.56;;;23.20;47.60
71795;BME280;59641;45.188;5.712;2023-06-24T04:39:07;99721.59;;;23.20;47.33
71795;BME280;59641;45.188;5.712;2023-06-24T04:41:33;99715.91;;;23.16;47.43
71795;BME280;59641;45.188;5.712;2023-06-24T04:43:58;99722.78;;;23.14;47.80
71795;BME280;59641;45.188;5.712;2023-06-24T04:46:23;99715.66;;;23.13;47.69
71795;BME280;59641;45.188;5.712;2023-06-24T04:48:49;99719.50;;;23.12;47.68
71795;BME280;59641;45.188;5.712;2023-06-24T04:51:14;99720.59;;;23.11;47.96
71795;BME280;59641;45.188;5.712;2023-06-24T04:53:40;99724.16;;;23.11;47.85
71795;BME280;59641;45.188;5.712;2023-06-24T04:56:05;99728.53;;;23.12;48.07
71795;BME280;59641;45.188;5.712;2023-06-24T04:58:30;99723.88;;;23.13;48.15
71795;BME280;59641;45.188;5.712;2023-06-24T05:00:56;99725.50;;;23.14;48.10
71795;BME280;59641;45.188;5.712;2023-06-24T05:03:21;99723.59;;;23.14;47.95
71795;BME280;59641;45.188;5.712;2023-06-24T05:05:47;99720.31;;;23.12;47.94
71795;BME280;59641;45.188;5.712;2023-06-24T05:08:13;99727.19;;;23.10;48.06
71795;BME280;59641;45.188;5.712;2023-06-24T05:10:38;99732.16;;;23.08;47.90
71795;BME280;59641;45.188;5.712;2023-06-24T05:13:03;99735.16;;;23.06;48.20
71795;BME280;59641;45.188;5.712;2023-06-24T05:15:29;99734.97;;;23.03;48.00
71795;BME280;59641;45.188;5.712;2023-06-24T05:17:55;99737.16;;;23.01;48.30
71795;BME280;59641;45.188;5.712;2023-06-24T05:20:21;99731.69;;;23.01;48.20
71795;BME280;59641;45.188;5.712;2023-06-24T05:22:46;99737.16;;;23.01;48.11
71795;BME280;59641;45.188;5.712;2023-06-24T05:25:11;99733.63;;;23.00;48.27
71795;BME280;59641;45.188;5.712;2023-06-24T05:27:37;99728.97;;;23.01;48.29
71795;BME280;59641;45.188;5.712;2023-06-24T05:30:03;99736.06;;;23.02;48.27
71795;BME280;59641;45.188;5.712;2023-06-24T05:32:28;99737.41;;;23.04;48.46
71795;BME280;59641;45.188;5.712;2023-06-24T05:34:53;99728.88;;;23.06;48.33
71795;BME280;59641;45.188;5.712;2023-06-24T05:37:19;99740.09;;;23.09;48.41
71795;BME280;59641;45.188;5.712;2023-06-24T05:39:44;99735.94;;;23.12;48.71
71795;BME280;59641;45.188;5.712;2023-06-24T05:42:09;99740.81;;;23.15;48.34
71795;BME280;59641;45.188;5.712;2023-06-24T05:44:35;99737.28;;;23.14;48.34
71795;BME280;59641;45.188;5.712;2023-06-24T05:47:00;99743.28;;;23.16;48.65
71795;BME280;59641;45.188;5.712;2023-06-24T05:49:25;99736.69;;;23.17;48.59
71795;BME280;59641;45.188;5.712;2023-06-24T05:51:51;99741.28;;;23.22;48.37
71795;BME280;59641;45.188;5.712;2023-06-24T05:54:16;99740.16;;;23.23;48.35
71795;BME280;59641;45.188;5.712;2023-06-24T05:56:41;99745.63;;;23.23;48.28
71795;BME280;59641;45.188;5.712;2023-06-24T05:59:07;99747.28;;;23.24;48.35
71795;BME280;59641;45.188;5.712;2023-06-24T06:01:32;99738.47;;;23.27;48.30
71795;BME280;59641;45.188;5.712;2023-06-24T06:03:57;99736.53;;;23.28;48.23
71795;BME280;59641;45.188;5.712;2023-06-24T06:06:23;99735.44;;;23.29;48.46
71795;BME280;59641;45.188;5.712;2023-06-24T06:08:48;99737.56;;;23.32;48.34
71795;BME280;59641;45.188;5.712;2023-06-24T06:11:13;99734.84;;;23.32;48.17
71795;BME280;59641;45.188;5.712;2023-06-24T06:13:39;99738.91;;;23.34;48.43
71795;BME280;59641;45.188;5.712;2023-06-24T06:16:04;99741.34;;;23.36;48.33
71795;BME280;59641;45.188;5.712;2023-06-24T06:18:29;99734.47;;;23.38;48.27
71795;BME280;59641;45.188;5.712;2023-06-24T06:20:55;99729.00;;;23.38;48.14
71795;BME280;59641;45.188;5.712;2023-06-24T06:23:20;99733.34;;;23.39;48.14
71795;BME280;59641;45.188;5.712;2023-06-24T06:25:46;99733.06;;;23.41;47.96
71795;BME280;59641;45.188;5.712;2023-06-24T06:28:11;99726.47;;;23.42;47.99
71795;BME280;59641;45.188;5.712;2023-06-24T06:30:36;99725.38;;;23.43;48.12
71795;BME280;59641;45.188;5.712;2023-06-24T06:33:02;99717.69;;;23.45;48.15
71795;BME280;59641;45.188;5.712;2023-06-24T06:35:27;99724.16;;;23.49;48.14
71795;BME280;59641;45.188;5.712;2023-06-24T06:37:52;99722.75;;;23.52;47.78
71795;BME280;59641;45.188;5.712;2023-06-24T06:40:20;99728.47;;;23.55;47.76
71795;BME280;59641;45.188;5.712;2023-06-24T06:42:45;99726.25;;;23.57;47.93
71795;BME280;59641;45.188;5.712;2023-06-24T06:45:10;99724.53;;;23.61;47.80
71795;BME280;59641;45.188;5.712;2023-06-24T06:47:36;99719.56;;;23.64;47.88
71795;BME280;59641;45.188;5.712;2023-06-24T06:50:01;99727.19;;;23.67;47.90
71795;BME280;59641;45.188;5.712;2023-06-24T06:52:26;99724.16;;;23.68;47.63
71795;BME280;59641;45.188;5.712;2023-06-24T06:54:53;99727.41;;;23.70;47.92
71795;BME280;59641;45.188;5.712;2023-06-24T06:57:18;99725.75;;;23.74;47.70
71795;BME280;59641;45.188;5.712;2023-06-24T06:59:44;99733.97;;;23.74;47.34
71795;BME280;59641;45.188;5.712;2023-06-24T07:02:09;99732.03;;;23.75;47.36
71795;BME280;59641;45.188;5.712;2023-06-24T07:04:35;99724.84;;;23.79;47.29
71795;BME280;59641;45.188;5.712;2023-06-24T07:07:00;99730.34;;;23.79;47.14
71795;BME280;59641;45.188;5.712;2023-06-24T07:09:25;99729.50;;;23.78;47.58
71795;BME280;59641;45.188;5.712;2023-06-24T07:11:51;99733.56;;;23.81;47.10
71795;BME280;59641;45.188;5.712;2023-06-24T07:14:16;99729.72;;;23.82;47.04
71795;BME280;59641;45.188;5.712;2023-06-24T07:16:41;99731.06;;;23.85;47.00
71795;BME280;59641;45.188;5.712;2023-06-24T07:19:07;99728.84;;;23.87;47.06
71795;BME280;59641;45.188;5.712;2023-06-24T07:21:32;99728.59;;;23.83;46.89
71795;BME280;59641;45.188;5.712;2023-06-24T07:23:57;99726.47;;;23.80;46.87
71795;BME280;59641;45.188;5.712;2023-06-24T07:26:23;99724.53;;;23.80;46.93
71795;BME280;59641;45.188;5.712;2023-06-24T07:28:48;99715.22;;;23.81;46.92
71795;BME280;59641;45.188;5.712;2023-06-24T07:31:13;99720.09;;;23.85;47.20
71795;BME280;59641;45.188;5.712;2023-06-24T07:33:38;99719.19;;;23.89;46.73
71795;BME280;59641;45.188;5.712;2023-06-24T07:36:04;99722.13;;;23.93;46.64
71795;BME280;59641;45.188;5.712;2023-06-24T07:38:29;99717.97;;;23.95;46.40
71795;BME280;59641;45.188;5.712;2023-06-24T07:40:55;99715.47;;;23.99;46.38
71795;BME280;59641;45.188;5.712;2023-06-24T07:43:20;99719.31;;;23.98;46.01
71795;BME280;59641;45.188;5.712;2023-06-24T07:45:46;99714.66;;;23.98;45.84
71795;BME280;59641;45.188;5.712;2023-06-24T07:48:11;99708.56;;;24.01;46.27
71795;BME280;59641;45.188;5.712;2023-06-24T07:50:38;99703.00;;;24.07;46.42
71795;BME280;59641;45.188;5.712;2023-06-24T07:53:03;99708.72;;;24.10;45.28
71795;BME280;59641;45.188;5.712;2023-06-24T07:55:28;99708.38;;;24.12;45.47
71795;BME280;59641;45.188;5.712;2023-06-24T07:57:54;99704.53;;;24.13;45.51
71795;BME280;59641;45.188;5.712;2023-06-24T08:00:19;99702.28;;;24.15;45.09
71795;BME280;59641;45.188;5.712;2023-06-24T08:02:45;99690.50;;;24.14;45.04
71795;BME280;59641;45.188;5.712;2023-06-24T08:05:10;99692.69;;;24.17;45.09
71795;BME280;59641;45.188;5.712;2023-06-24T08:07:37;99697.53;;;24.20;45.07
71795;BME280;59641;45.188;5.712;2023-06-24T08:10:03;99692.56;;;24.22;44.80
71795;BME280;59641;45.188;5.712;2023-06-24T08:12:28;99691.44;;;24.23;44.58
71795;BME280;59641;45.188;5.712;2023-06-24T08:14:53;99688.41;;;24.25;44.64
71795;BME280;59641;45.188;5.712;2023-06-24T08:17:19;99685.56;;;24.30;44.87
71795;BME280;59641;45.188;5.712;2023-06-24T08:19:44;99689.13;;;24.31;44.31
71795;BME280;59641;45.188;5.712;2023-06-24T08:22:09;99689.34;;;24.34;44.72
71795;BME280;59641;45.188;5.712;2023-06-24T08:24:36;99691.97;;;24.39;44.27
71795;BME280;59641;45.188;5.712;2023-06-24T08:27:01;99689.75;;;24.41;44.17
71795;BME280;59641;45.188;5.712;2023-06-24T08:29:26;99688.56;;;24.48;44.31
71795;BME280;59641;45.188;5.712;2023-06-24T08:31:52;99686.03;;;24.51;44.34
71795;BME280;59641;45.188;5.712;2023-06-24T08:34:17;99687.88;;;24.56;44.06
71795;BME280;59641;45.188;5.712;2023-06-24T08:36:43;99681.44;;;24.60;44.06
71795;BME280;59641;45.188;5.712;2023-06-24T08:39:08;99687.31;;;24.67;44.04
71795;BME280;59641;45.188;5.712;2023-06-24T08:41:33;99690.56;;;24.70;44.07
71795;BME280;59641;45.188;5.712;2023-06-24T08:43:59;99689.47;;;24.71;43.38
71795;BME280;59641;45.188;5.712;2023-06-24T08:46:25;99692.22;;;24.71;43.09
71795;BME280;59641;45.188;5.712;2023-06-24T08:49:02;99685.31;;;24.73;43.47
71795;BME280;59641;45.188;5.712;2023-06-24T08:51:29;99687.72;;;24.75;43.36
71795;BME280;59641;45.188;5.712;2023-06-24T08:53:57;99692.63;;;24.78;43.30
71795;BME280;59641;45.188;5.712;2023-06-24T08:56:23;99683.16;;;24.84;42.77
71795;BME280;59641;45.188;5.712;2023-06-24T08:58:50;99687.81;;;24.83;42.63
71795;BME280;59641;45.188;5.712;2023-06-24T09:01:17;99686.91;;;24.88;43.06
71795;BME280;59641;45.188;5.712;2023-06-24T09:03:42;99679.81;;;24.87;42.92
71795;BME280;59641;45.188;5.712;2023-06-24T09:06:07;99674.50;;;24.91;42.99
71795;BME280;59641;45.188;5.712;2023-06-24T09:08:33;99676.63;;;24.94;42.96
71795;BME280;59641;45.188;5.712;2023-06-24T09:11:00;99677.34;;;24.99;42.75
71795;BME280;59641;45.188;5.712;2023-06-24T09:13:35;99673.34;;;25.05;43.10
71795;BME280;59641;45.188;5.712;2023-06-24T09:16:11;99671.91;;;25.08;42.47
71795;BME280;59641;45.188;5.712;2023-06-24T09:18:37;99671.91;;;25.08;42.59
71795;BME280;59641;45.188;5.712;2023-06-24T09:21:02;99670.69;;;25.14;42.80
71795;BME280;59641;45.188;5.712;2023-06-24T09:23:28;99678.34;;;25.17;42.31
71795;BME280;59641;45.188;5.712;2023-06-24T09:25:57;99679.03;;;25.23;42.61
71795;BME280;59641;45.188;5.712;2023-06-24T09:28:26;99680.84;;;25.27;42.54
71795;BME280;59641;45.188;5.712;2023-06-24T09:31:06;99666.97;;;25.33;42.45
71795;BME280;59641;45.188;5.712;2023-06-24T09:33:31;99678.47;;;25.35;42.37
71795;BME280;59641;45.188;5.712;2023-06-24T09:35:57;99670.13;;;25.40;42.05
71795;BME280;59641;45.188;5.712;2023-06-24T09:38:35;99667.75;;;25.47;42.20
71795;BME280;59641;45.188;5.712;2023-06-24T09:41:05;99666.00;;;25.51;42.43
71795;BME280;59641;45.188;5.712;2023-06-24T09:43:36;99668.63;;;25.56;42.28
71795;BME280;59641;45.188;5.712;2023-06-24T09:46:03;99664.44;;;25.59;42.07
71795;BME280;59641;45.188;5.712;2023-06-24T09:48:29;99656.41;;;25.62;42.06
71795;BME280;59641;45.188;5.712;2023-06-24T09:50:59;99657.41;;;25.66;41.93
71795;BME280;59641;45.188;5.712;2023-06-24T09:53:27;99648.53;;;25.69;41.77
71795;BME280;59641;45.188;5.712;2023-06-24T09:55:55;99644.34;;;25.72;41.69
71795;BME280;59641;45.188;5.712;2023-06-24T09:58:22;99637.41;;;25.75;41.57
71795;BME280;59641;45.188;5.712;2023-06-24T10:00:49;99637.25;;;25.80;41.46
71795;BME280;59641;45.188;5.712;2023-06-24T10:03:14;99636.63;;;25.83;41.18
71795;BME280;59641;45.188;5.712;2023-06-24T10:05:40;99640.41;;;25.87;41.49
71795;BME280;59641;45.188;5.712;2023-06-24T10:08:06;99635.41;;;25.89;41.02
71795;BME280;59641;45.188;5.712;2023-06-24T10:10:33;99634.47;;;25.93;41.28
71795;BME280;59641;45.188;5.712;2023-06-24T10:12:58;99624.94;;;26.00;40.79
71795;BME280;59641;45.188;5.712;2023-06-24T10:15:23;99623.19;;;26.04;40.28
71795;BME280;59641;45.188;5.712;2023-06-24T10:17:50;99622.25;;;26.08;40.32
71795;BME280;59641;45.188;5.712;2023-06-24T10:20:25;99621.44;;;26.17;40.12
71795;BME280;59641;45.188;5.712;2023-06-24T10:22:51;99624.09;;;26.22;40.69
71795;BME280;59641;45.188;5.712;2023-06-24T10:25:17;99618.09;;;26.28;40.28
71795;BME280;59641;45.188;5.712;2023-06-24T10:27:43;99618.78;;;26.34;40.14
71795;BME280;59641;45.188;5.712;2023-06-24T10:30:16;99612.00;;;26.40;40.21
71795;BME280;59641;45.188;5.712;2023-06-24T10:32:42;99617.69;;;26.44;40.76
71795;BME280;59641;45.188;5.712;2023-06-24T10:35:25;99612.53;;;26.51;40.47
71795;BME280;59641;45.188;5.712;2023-06-24T10:38:01;99619.00;;;26.55;40.21
71795;BME280;59641;45.188;5.712;2023-06-24T10:45:51;99600.75;;;26.68;40.09
71795;BME280;59641;45.188;5.712;2023-06-24T10:48:17;99603.84;;;26.75;39.87
71795;BME280;59641;45.188;5.712;2023-06-24T10:50:46;99603.53;;;26.85;39.76
71795;BME280;59641;45.188;5.712;2023-06-24T10:53:13;99597.56;;;26.92;40.00
71795;BME280;59641;45.188;5.712;2023-06-24T10:55:39;99589.63;;;26.99;39.65
71795;BME280;59641;45.188;5.712;2023-06-24T10:58:12;99592.69;;;27.06;39.87
71795;BME280;59641;45.188;5.712;2023-06-24T11:00:38;99586.69;;;27.13;39.51
71795;BME280;59641;45.188;5.712;2023-06-24T11:03:09;99592.22;;;27.22;39.42
71795;BME280;59641;45.188;5.712;2023-06-24T11:05:34;99586.72;;;27.30;39.52
71795;BME280;59641;45.188;5.712;2023-06-24T11:07:59;99577.63;;;27.38;39.58
71795;BME280;59641;45.188;5.712;2023-06-24T11:10:25;99578.41;;;27.48;39.73
71795;BME280;59641;45.188;5.712;2023-06-24T11:12:50;99575.63;;;27.56;39.91
71795;BME280;59641;45.188;5.712;2023-06-24T11:15:16;99570.41;;;27.63;39.88
71795;BME280;59641;45.188;5.712;2023-06-24T11:17:43;99567.31;;;27.74;39.45
71795;BME280;59641;45.188;5.712;2023-06-24T11:20:10;99570.22;;;27.86;39.84
71795;BME280;59641;45.188;5.712;2023-06-24T11:22:36;99564.31;;;27.96;39.93
71795;BME280;59641;45.188;5.712;2023-06-24T11:25:02;99561.66;;;28.09;40.16
71795;BME280;59641;45.188;5.712;2023-06-24T11:27:30;99559.16;;;28.24;39.52
71795;BME280;59641;45.188;5.712;2023-06-24T11:29:57;99563.63;;;28.38;39.89
71795;BME280;59641;45.188;5.712;2023-06-24T11:32:41;99556.09;;;28.56;39.42
71795;BME280;59641;45.188;5.712;2023-06-24T11:35:10;99554.50;;;28.67;39.09
71795;BME280;59641;45.188;5.712;2023-06-24T11:37:36;99548.72;;;28.81;38.85
71795;BME280;59641;45.188;5.712;2023-06-24T11:40:07;99555.94;;;28.94;38.99
71795;BME280;59641;45.188;5.712;2023-06-24T11:42:36;99546.59;;;29.07;39.44
71795;BME280;59641;45.188;5.712;2023-06-24T11:45:02;99543.53;;;29.21;39.02
71795;BME280;59641;45.188;5.712;2023-06-24T11:47:32;99534.16;;;29.35;39.00
71795;BME280;59641;45.188;5.712;2023-06-24T11:49:58;99530.94;;;29.45;38.42
71795;BME280;59641;45.188;5.712;2023-06-24T11:55:15;99531.81;;;29.70;37.90
71795;BME280;59641;45.188;5.712;2023-06-24T11:58:07;99510.38;;;29.79;37.45
71795;BME280;59641;45.188;5.712;2023-06-24T12:00:40;99517.41;;;29.89;37.80
71795;BME280;59641;45.188;5.712;2023-06-24T12:03:09;99512.56;;;29.98;36.40
71795;BME280;59641;45.188;5.712;2023-06-24T12:05:36;99506.47;;;30.05;37.33
71795;BME280;59641;45.188;5.712;2023-06-24T12:08:07;99504.72;;;30.12;36.79
71795;BME280;59641;45.188;5.712;2023-06-24T12:10:33;99502.53;;;30.18;36.65
71795;BME280;59641;45.188;5.712;2023-06-24T12:13:00;99498.88;;;30.26;36.99
71795;BME280;59641;45.188;5.712;2023-06-24T12:15:27;99506.22;;;30.34;37.27
71795;BME280;59641;45.188;5.712;2023-06-24T12:17:52;99499.06;;;30.46;37.44
71795;BME280;59641;45.188;5.712;2023-06-24T12:20:18;99502.50;;;30.55;37.14
71795;BME280;59641;45.188;5.712;2023-06-24T12:22:44;99499.22;;;30.65;37.80
71795;BME280;59641;45.188;5.712;2023-06-24T12:25:10;99494.34;;;30.74;37.98
71795;BME280;59641;45.188;5.712;2023-06-24T12:27:36;99500.59;;;30.84;37.49
71795;BME280;59641;45.188;5.712;2023-06-24T12:30:01;99486.09;;;30.90;37.17
71795;BME280;59641;45.188;5.712;2023-06-24T12:32:27;99491.84;;;30.97;37.10
71795;BME280;59641;45.188;5.712;2023-06-24T12:34:53;99479.69;;;31.02;37.17
71795;BME280;59641;45.188;5.712;2023-06-24T12:37:18;99481.06;;;31.08;36.45
71795;BME280;59641;45.188;5.712;2023-06-24T12:39:44;99480.69;;;31.10;36.88
71795;BME280;59641;45.188;5.712;2023-06-24T12:42:10;99473.63;;;31.12;36.25
71795;BME280;59641;45.188;5.712;2023-06-24T12:44:35;99475.97;;;31.10;35.76
71795;BME280;59641;45.188;5.712;2023-06-24T12:47:01;99462.00;;;31.07;36.34
71795;BME280;59641;45.188;5.712;2023-06-24T12:49:26;99462.63;;;31.00;36.05
71795;BME280;59641;45.188;5.712;2023-06-24T12:51:51;99459.31;;;30.94;36.44
71795;BME280;59641;45.188;5.712;2023-06-24T12:54:17;99458.41;;;30.90;36.59
71795;BME280;59641;45.188;5.712;2023-06-24T12:56:43;99458.31;;;30.87;35.62
71795;BME280;59641;45.188;5.712;2023-06-24T12:59:08;99456.25;;;30.84;36.15
71795;BME280;59641;45.188;5.712;2023-06-24T13:01:34;99461.31;;;30.82;36.67
71795;BME280;59641;45.188;5.712;2023-06-24T13:03:59;99457.72;;;30.81;36.16
71795;BME280;59641;45.188;5.712;2023-06-24T13:06:24;99448.97;;;30.79;36.83
71795;BME280;59641;45.188;5.712;2023-06-24T13:08:50;99446.56;;;30.77;35.86
71795;BME280;59641;45.188;5.712;2023-06-24T13:11:15;99442.53;;;30.75;35.03
71795;BME280;59641;45.188;5.712;2023-06-24T13:13:41;99439.63;;;30.71;35.96